Terminal Aerodrome Forecast
Issued by NWS

Home | Current Version | Previous Version | Graphics & Text | Print | Product List | Glossary On
Versions: 1 2 3 4 5 6 7 8 9 10 11 12 13 14
496
FTUS43 KICT 111728 AAB
TAFSLN
TAF AMD
KSLN 111728Z 1117/1218 09004KT P6SM BKN008
     FM112000 16005KT P6SM SCT020
     FM120400 24005KT P6SM SCT250
     FM120900 30011KT P6SM SCT020
     FM121100 34012KT P6SM SCT025=

USA.gov is the U.S. government's official web portal to all federal, state and local government web resources and services.